Home   Weather   Germany   Halle   Past weeks
Flag for Germany

Past Weather in Halle, Saxony-Anhalt, Germany — Yesterday and Last 2 Weeks

Currently: 66 °F. Passing clouds. (Weather station: Leipzig-Schkeuditz, Germany). See more current weather

Past Weather in Halle — Graph

°F

Halle Temperature Yesterday

Maximum temperature yesterday: 88 °F (at 2:20 pm)
Minimum temperature yesterday: 63 °F (at 3:20 am)
Average temperature yesterday: 75 °F

High & Low Weather Summary for the Past Weeks

 TemperatureHumidityPressure
High97 °F (Aug 4, 2:50 pm)100% (Jul 31, 4:20 am)30.33 "Hg (Jul 31, 4:20 am)
Low50 °F (Aug 7, 4:50 am)27% (Aug 4, 4:50 pm)29.68 "Hg (Aug 15, 3:50 am)
Average72 °F57%30.10 "Hg
* Reported Jul 31 4:20 am — Aug 15 4:50 am, Halle. Weather by CustomWeather, © 2022

Note: Actual official high and low records may vary slightly from our data, if they occured in-between our weather recording intervals... More about our weather records

Halle Weather History for the Previous 24 Hours

Scroll right to see more
 ConditionsComfort  
Time TempWeatherWind HumidityBarometerVisibility
4:50 am
Mon, Aug 15
66 °FPassing clouds.7 mph78%29.68 "HgN/A
4:20 am64 °FClear.7 mph83%29.68 "Hg10 mi
3:50 am64 °FClear.8 mph83%29.68 "Hg10 mi
3:20 am64 °FClear.8 mph83%29.71 "Hg10 mi
2:50 am68 °FClear.7 mph73%29.71 "Hg10 mi
1:20 am70 °FClear.5 mph69%29.71 "Hg10 mi
12:50 am70 °FClear.3 mph69%29.74 "Hg10 mi
12:20 am72 °FClear.7 mph65%29.74 "Hg10 mi
11:50 pm
Sun, Aug 14
70 °FClear.8 mph69%29.74 "Hg10 mi
11:20 pm73 °FClear.8 mph61%29.74 "Hg10 mi
10:50 pm75 °FClear.7 mph57%29.74 "Hg10 mi
10:20 pm75 °FClear.7 mph57%29.74 "Hg10 mi
9:50 pm73 °FPassing clouds.8 mph61%29.74 "HgN/A
9:20 pm77 °FClear.6 mph57%29.74 "Hg10 mi
8:20 pm81 °FSunny.6 mph51%29.74 "Hg10 mi
7:20 pm84 °FSunny.9 mph43%29.74 "Hg10 mi
6:50 pm86 °FSunny.8 mph40%29.74 "Hg10 mi
6:20 pm84 °FPassing clouds.8 mph43%29.77 "HgN/A
5:50 pm86 °FPassing clouds.9 mph40%29.77 "HgN/A
5:20 pm86 °FPassing clouds.8 mph40%29.77 "HgN/A
4:50 pm86 °FPassing clouds.9 mph43%29.77 "HgN/A
4:20 pm84 °FScattered showers. Passing clouds.12 mph43%29.77 "HgN/A
3:50 pm86 °FScattered showers. Passing clouds.13 mph40%29.80 "HgN/A
3:20 pm88 °FScattered showers. Passing clouds.10 mph38%29.80 "HgN/A
2:50 pm86 °FPassing clouds.14 mph40%29.83 "HgN/A
2:20 pm88 °FSunny.13 mph38%29.83 "Hg10 mi
1:50 pm84 °FSunny.14 mph45%29.83 "Hg10 mi
1:20 pm86 °FPassing clouds.13 mph46%29.86 "HgN/A
12:50 pm84 °FPassing clouds.12 mph48%29.86 "HgN/A
12:20 pm81 °FPassing clouds.13 mph54%29.86 "HgN/A
11:50 am81 °FPassing clouds.12 mph54%29.89 "HgN/A
11:20 am81 °FSunny.13 mph58%29.89 "Hg10 mi
10:50 am79 °FPassing clouds.8 mph58%29.89 "HgN/A
10:20 am77 °FPassing clouds.9 mph61%29.92 "HgN/A
9:50 am77 °FPassing clouds.8 mph65%29.92 "HgN/A
9:20 am75 °FSunny.10 mph69%29.92 "Hg10 mi
8:50 am73 °FSunny.8 mph74%29.92 "Hg10 mi
8:20 am70 °FSunny.8 mph78%29.92 "Hg10 mi
7:50 am68 °FSunny.6 mph83%29.92 "Hg10 mi
7:20 am64 °FSunny.6 mph88%29.92 "Hg10 mi
6:50 am63 °FSunny.8 mph94%29.95 "Hg10 mi
6:20 am63 °FSunny.6 mph88%29.95 "Hg10 mi
Weather by CustomWeather, © 2022

See weather overview